Главная страница
METAR-TAF:

METAR-TAF

Аэропорты :

Musi clinic

Mankayane, Свазиленд

широта: 26-43-20S, долгота: 30-54-44E, высота над уровнем моря: 956 м

Текущие метеонаблюдения

Эта сводка был подготовлена 18 минут назад, в 01:00 UTC
Ветер 3 Узел от северо-северо-восточный
Температура 19°C
Влажность 94%
Давление 1024 hPa

METAR: FDUS 140100Z AUTO 03003KT //// // ////// 19/18 Q1024

Время: 03:18 (01:18 UTC)


TAF: отсутствует

Метеонаблюдения и прогнозы для более 4000 аэропортов (сводки METAR и TAF).

Имеющиеся станции представлены на карте желтыми и красными точками.

Чтобы увидеть название станции, наведите на нее мышь.

Затем щелкните, чтобы увидеть метеонаблюдения и метеопрогнозы.

Управление картой: чтобы увеличить масштаб, щелкните зеленые кнопки с черным крестиком; чтобы уменьшить масштаб, щелкните зеленую кнопку с тире; для просмотра соседних карт щелкайте зеленые стрелки.


METAR-TAF: